Time;durP1;ratioP1;P1;durP2;ratioP2;P2;SDS_P1;SDS_P2;PMS_P1;PMS_P2;Temp;Humidity;BMP_temperature;BMP_pressure;BME280_temperature;BME280_humidity;BME280_pressure;Samples;Min_cycle;Max_cycle;Signal;HPM_P1;HPM_P2
2023/01/10 00:01:40;;;;;;;25.97;11.30;;;6.60;99.90;;;;;;4835780;29;20207;-77
2023/01/10 00:04:07;;;;;;;27.50;10.73;;;6.60;99.90;;;;;;4857999;29;20238;-77
2023/01/10 00:06:34;;;;;;;23.70;10.20;;;6.60;99.90;;;;;;4842795;29;20301;-77
2023/01/10 00:09:01;;;;;;;25.40;11.07;;;6.60;99.90;;;;;;4835437;29;20205;-78
2023/01/10 00:14:14;;;;;;;24.03;11.00;;;6.60;99.90;;;;;;4865763;29;20524;-77
2023/01/10 00:16:41;;;;;;;22.57;9.10;;;6.60;99.90;;;;;;4850752;29;20194;-77
2023/01/10 00:19:09;;;;;;;18.90;10.10;;;6.60;99.90;;;;;;4836231;29;20214;-77
2023/01/10 00:21:38;;;;;;;21.77;9.63;;;6.60;99.90;;;;;;4840532;29;20214;-77
2023/01/10 00:24:24;;;;;;;16.60;9.47;;;6.60;99.90;;;;;;4848997;29;20237;-77
2023/01/10 00:26:51;;;;;;;19.50;9.27;;;6.60;99.90;;;;;;4842656;29;20871;-77
2023/01/10 00:29:20;;;;;;;20.70;10.40;;;6.50;81.70;;;;;;4848633;29;20218;-76
2023/01/10 00:31:48;;;;;;;20.10;8.53;;;6.60;68.50;;;;;;4858344;29;20557;-76
2023/01/10 00:34:15;;;;;;;22.97;9.97;;;6.60;54.80;;;;;;4849263;29;20400;-77
2023/01/10 00:36:44;;;;;;;23.80;10.07;;;6.60;56.90;;;;;;4843449;29;20199;-77
2023/01/10 00:39:11;;;;;;;22.23;9.50;;;6.60;39.70;;;;;;4844992;29;20210;-76
2023/01/10 00:44:25;;;;;;;18.43;8.53;;;6.60;29.10;;;;;;4853142;29;20773;-77
2023/01/10 00:46:54;;;;;;;15.53;8.67;;;6.50;28.60;;;;;;4845588;29;20625;-76
2023/01/10 00:49:21;;;;;;;17.97;9.07;;;6.50;27.20;;;;;;4859196;29;20211;-77
2023/01/10 00:51:49;;;;;;;19.60;8.80;;;6.50;31.20;;;;;;4843077;29;20565;-77
2023/01/10 00:54:16;;;;;;;15.20;8.40;;;6.50;36.30;;;;;;4852559;29;20199;-77
2023/01/10 00:56:43;;;;;;;18.17;9.27;;;6.40;36.00;;;;;;4858090;29;20211;-77
2023/01/10 00:59:10;;;;;;;18.10;9.17;;;6.40;39.90;;;;;;4868685;29;21067;-80
2023/01/10 01:01:38;;;;;;;15.43;8.90;;;6.40;43.40;;;;;;4857613;29;20203;-77
2023/01/10 01:04:05;;;;;;;25.37;9.20;;;6.30;51.00;;;;;;4863383;29;20262;-77
2023/01/10 01:06:32;;;;;;;20.93;8.87;;;6.20;56.50;;;;;;4860896;29;20219;-76
2023/01/10 01:08:59;;;;;;;16.50;8.47;;;6.20;66.00;;;;;;4846759;29;20194;-77
2023/01/10 01:11:27;;;;;;;16.37;7.80;;;6.10;84.10;;;;;;4858225;29;20253;-77
2023/01/10 01:13:54;;;;;;;19.70;8.50;;;6.10;85.50;;;;;;4848934;29;20189;-77
2023/01/10 01:16:22;;;;;;;22.37;8.53;;;6.10;88.90;;;;;;4856061;29;20248;-79
2023/01/10 01:18:48;;;;;;;15.20;8.47;;;6.10;84.60;;;;;;4860677;29;20237;-77
2023/01/10 01:21:17;;;;;;;18.60;7.73;;;6.20;76.60;;;;;;4863005;29;20612;-76
2023/01/10 01:23:44;;;;;;;21.53;7.70;;;6.30;70.60;;;;;;4859353;29;20282;-77
2023/01/10 01:26:12;;;;;;;17.03;7.67;;;6.30;54.70;;;;;;4846632;29;20218;-76
2023/01/10 01:28:39;;;;;;;16.77;7.50;;;6.30;36.30;;;;;;4845887;29;20210;-77
2023/01/10 01:31:08;;;;;;;20.70;8.87;;;6.30;29.90;;;;;;4863686;29;20810;-76
2023/01/10 01:33:36;;;;;;;17.53;7.60;;;6.30;31.40;;;;;;4852894;29;20266;-77
2023/01/10 01:36:08;;;;;;;18.50;7.83;;;6.30;28.20;;;;;;4867134;29;20207;-76
2023/01/10 01:38:36;;;;;;;18.77;7.53;;;6.40;15.40;;;;;;4849855;29;20203;-76
2023/01/10 01:44:09;;;;;;;24.60;8.83;;;6.40;3.90;;;;;;4871624;29;20205;-77
2023/01/10 01:46:43;;;;;;;19.30;8.33;;;6.50;1.00;;;;;;4860251;29;20203;-77
2023/01/10 01:49:18;;;;;;;20.53;8.50;;;6.50;1.00;;;;;;4843941;29;20203;-77
2023/01/10 01:51:48;;;;;;;20.77;7.83;;;6.40;1.00;;;;;;4864914;29;20531;-77
2023/01/10 01:54:17;;;;;;;18.00;8.17;;;6.40;1.00;;;;;;4868067;29;20659;-77
2023/01/10 01:56:53;;;;;;;21.47;8.30;;;6.50;1.00;;;;;;4860970;29;20227;-76
2023/01/10 01:59:29;;;;;;;17.30;8.10;;;6.40;1.00;;;;;;4861881;29;20286;-76
2023/01/10 02:02:04;;;;;;;16.17;8.20;;;6.40;1.00;;;;;;4850716;29;20221;-76
2023/01/10 02:04:45;;;;;;;16.10;8.47;;;6.40;1.00;;;;;;4877359;23;20719;-65
2023/01/10 02:07:13;;;;;;;18.33;8.67;;;6.50;1.00;;;;;;4880310;29;20224;-64
2023/01/10 02:09:54;;;;;;;18.47;8.30;;;6.50;1.00;;;;;;4877040;29;20194;-64
2023/01/10 02:12:23;;;;;;;21.73;8.60;;;6.50;1.00;;;;;;4881820;29;20197;-64
2023/01/10 02:14:50;;;;;;;20.87;8.93;;;6.50;1.00;;;;;;4849071;29;20211;-64
2023/01/10 02:17:17;;;;;;;16.27;7.30;;;6.50;1.00;;;;;;4857880;29;20665;-64
2023/01/10 02:19:44;;;;;;;23.90;9.03;;;6.40;1.00;;;;;;4881502;29;20197;-64
2023/01/10 02:22:50;;;;;;;17.23;7.53;;;6.40;1.00;;;;;;4880897;29;20212;-64
2023/01/10 02:25:20;;;;;;;17.90;8.97;;;6.40;1.00;;;;;;4868693;29;20216;-64
2023/01/10 02:28:11;;;;;;;27.37;9.10;;;6.40;1.00;;;;;;4882960;29;20217;-64
2023/01/10 02:31:08;;;;;;;16.07;7.60;;;6.50;1.00;;;;;;4883578;29;20257;-64
2023/01/10 02:34:00;;;;;;;19.93;7.70;;;6.40;1.00;;;;;;4849851;29;20225;-64
2023/01/10 02:36:45;;;;;;;17.17;7.43;;;6.40;1.00;;;;;;4880284;29;20213;-64
2023/01/10 02:39:50;;;;;;;16.43;7.13;;;6.40;1.00;;;;;;4864120;29;20196;-67
2023/01/10 02:42:30;;;;;;;16.77;7.37;;;6.40;1.00;;;;;;4866771;29;20221;-65
2023/01/10 02:45:18;;;;;;;19.00;8.10;;;6.40;1.00;;;;;;4867807;29;20295;-65
2023/01/10 02:47:45;;;;;;;15.67;7.57;;;6.40;1.00;;;;;;4850015;29;20218;-64
2023/01/10 02:50:31;;;;;;;20.43;7.67;;;6.40;1.00;;;;;;4862545;29;20839;-65
2023/01/10 02:53:02;;;;;;;22.07;7.67;;;6.40;1.00;;;;;;4850656;29;20213;-65
2023/01/10 02:55:56;;;;;;;18.67;6.97;;;6.40;1.00;;;;;;4880138;29;20438;-64
2023/01/10 02:58:48;;;;;;;16.20;6.33;;;6.40;1.00;;;;;;4854218;29;20300;-64
2023/01/10 03:01:40;;;;;;;14.40;6.60;;;6.40;1.00;;;;;;4880626;29;20249;-65
2023/01/10 03:04:28;;;;;;;19.20;6.87;;;6.40;1.00;;;;;;4869079;29;20725;-65
2023/01/10 03:07:14;;;;;;;19.43;6.63;;;6.30;1.00;;;;;;4867845;29;20228;-65
2023/01/10 03:10:06;;;;;;;15.90;6.03;;;6.30;1.00;;;;;;4861743;29;20225;-65
2023/01/10 03:12:59;;;;;;;20.10;6.30;;;6.30;1.00;;;;;;4865472;29;20218;-69
2023/01/10 03:15:34;;;;;;;14.90;5.50;;;6.20;1.00;;;;;;4864453;29;20186;-64
2023/01/10 03:18:05;;;;;;;18.23;6.47;;;6.00;1.00;;;;;;4863120;29;20209;-65
2023/01/10 03:20:36;;;;;;;16.90;5.70;;;6.00;1.00;;;;;;4864500;29;20741;-65
2023/01/10 03:23:05;;;;;;;14.40;5.77;;;5.90;1.00;;;;;;4847785;29;20202;-65
2023/01/10 03:25:36;;;;;;;16.07;5.23;;;5.80;1.00;;;;;;4861932;29;20198;-65
2023/01/10 03:28:14;;;;;;;14.87;5.67;;;5.80;1.00;;;;;;4864690;29;20194;-66
2023/01/10 03:31:03;;;;;;;19.87;6.13;;;5.80;1.00;;;;;;4863226;29;20265;-65
2023/01/10 03:33:32;;;;;;;12.97;5.33;;;5.80;1.00;;;;;;4849940;29;20393;-66
2023/01/10 03:36:21;;;;;;;15.10;5.63;;;5.70;1.00;;;;;;4852652;29;20200;-66
2023/01/10 03:38:55;;;;;;;13.47;5.10;;;5.70;2.30;;;;;;4866589;29;20190;-65
2023/01/10 03:41:34;;;;;;;23.40;5.93;;;5.80;3.00;;;;;;4865959;29;20198;-66
2023/01/10 03:44:45;;;;;;;21.33;5.50;;;5.90;1.00;;;;;;4852218;29;20742;-65
2023/01/10 03:47:18;;;;;;;12.47;5.40;;;6.00;1.00;;;;;;4855010;29;20225;-64
2023/01/10 03:49:49;;;;;;;22.47;7.90;;;6.10;1.00;;;;;;4845003;29;20285;-64
2023/01/10 03:52:18;;;;;;;18.03;6.93;;;6.10;1.00;;;;;;4867598;29;20599;-64
2023/01/10 03:54:46;;;;;;;17.40;6.10;;;6.10;1.00;;;;;;4865454;29;20276;-65
2023/01/10 03:57:32;;;;;;;15.53;5.00;;;6.10;1.00;;;;;;4848536;29;20297;-64
2023/01/10 03:59:59;;;;;;;12.57;5.07;;;6.10;1.00;;;;;;4835200;29;20206;-64
2023/01/10 04:02:28;;;;;;;19.40;7.87;;;6.10;1.00;;;;;;4857755;29;20262;-65
2023/01/10 04:04:56;;;;;;;19.17;5.77;;;6.20;1.00;;;;;;4868321;29;20609;-65
2023/01/10 04:07:23;;;;;;;13.63;6.03;;;6.10;1.00;;;;;;4867747;29;20210;-66
2023/01/10 04:09:50;;;;;;;14.63;5.27;;;6.20;1.00;;;;;;4868071;29;20202;-65
2023/01/10 04:12:17;;;;;;;15.23;5.37;;;6.20;1.00;;;;;;4859533;29;20745;-65
2023/01/10 04:14:45;;;;;;;15.87;5.47;;;6.20;1.00;;;;;;4865766;29;20222;-65
2023/01/10 04:17:14;;;;;;;13.40;5.47;;;6.20;1.00;;;;;;4860317;29;20209;-65
2023/01/10 04:19:41;;;;;;;15.33;4.90;;;6.20;1.00;;;;;;4858019;29;20280;-66
2023/01/10 04:22:09;;;;;;;24.53;5.17;;;6.10;1.00;;;;;;4866151;29;20297;-64
2023/01/10 04:24:36;;;;;;;19.30;4.37;;;6.00;1.00;;;;;;4855031;29;20278;-67
2023/01/10 04:27:04;;;;;;;15.97;5.20;;;5.80;1.00;;;;;;4855680;29;20290;-65
2023/01/10 04:29:31;;;;;;;14.50;4.70;;;5.80;1.00;;;;;;4867428;29;20763;-64
2023/01/10 04:31:57;;;;;;;12.37;4.70;;;5.80;1.00;;;;;;4867746;29;20743;-64
2023/01/10 04:34:24;;;;;;;13.00;4.97;;;5.80;1.00;;;;;;4866456;29;20225;-63
2023/01/10 04:36:51;;;;;;;22.53;5.80;;;5.80;1.00;;;;;;4882464;29;20218;-64
2023/01/10 04:39:18;;;;;;;22.63;6.93;;;5.70;1.00;;;;;;4867321;29;20292;-63
2023/01/10 04:41:45;;;;;;;14.57;5.07;;;5.60;1.00;;;;;;4867773;29;20683;-64
2023/01/10 04:44:12;;;;;;;19.47;5.23;;;5.50;1.00;;;;;;4868307;29;20424;-63
2023/01/10 04:46:39;;;;;;;19.83;5.27;;;5.70;1.00;;;;;;4867068;29;20212;-63
2023/01/10 04:49:08;;;;;;;17.87;5.17;;;5.70;1.00;;;;;;4851206;29;20765;-63
2023/01/10 04:51:35;;;;;;;13.23;5.10;;;5.70;1.00;;;;;;4867875;29;20705;-64
2023/01/10 04:54:03;;;;;;;21.40;5.50;;;5.70;1.00;;;;;;4867809;29;20194;-64
2023/01/10 04:56:30;;;;;;;12.10;4.57;;;5.70;1.00;;;;;;4836138;29;20209;-64
2023/01/10 04:58:57;;;;;;;15.87;5.53;;;5.80;1.00;;;;;;4868328;29;20212;-64
2023/01/10 05:01:25;;;;;;;13.87;5.37;;;5.90;1.00;;;;;;4852108;29;20209;-66
2023/01/10 05:03:54;;;;;;;14.70;5.53;;;5.70;1.00;;;;;;4867973;29;20263;-64
2023/01/10 05:06:22;;;;;;;20.27;5.87;;;5.60;1.00;;;;;;4863237;29;20547;-63
2023/01/10 05:08:50;;;;;;;14.80;5.17;;;5.70;1.00;;;;;;4865213;29;20713;-64
2023/01/10 05:11:16;;;;;;;15.73;6.23;;;5.60;1.00;;;;;;4865449;29;20210;-63
2023/01/10 05:13:43;;;;;;;19.53;9.43;;;5.60;1.00;;;;;;4864951;29;20590;-63
2023/01/10 05:16:14;;;;;;;19.13;7.43;;;5.60;1.00;;;;;;4856831;29;20221;-63
2023/01/10 05:18:41;;;;;;;25.07;7.53;;;5.60;1.00;;;;;;4865281;29;20217;-63
2023/01/10 05:21:12;;;;;;;15.73;6.10;;;5.60;1.00;;;;;;4866219;29;20269;-64
2023/01/10 05:23:39;;;;;;;22.47;6.37;;;5.70;1.00;;;;;;4849451;29;20202;-64
2023/01/10 05:26:08;;;;;;;16.03;5.33;;;5.80;1.00;;;;;;4865630;29;20202;-64
2023/01/10 05:28:36;;;;;;;18.17;7.30;;;5.80;1.00;;;;;;4865541;29;20478;-64
2023/01/10 05:31:08;;;;;;;20.00;5.43;;;5.80;1.00;;;;;;4866683;29;20205;-63
2023/01/10 05:33:35;;;;;;;18.67;6.30;;;5.80;1.00;;;;;;4858698;29;20250;-64
2023/01/10 05:36:04;;;;;;;15.90;6.40;;;5.90;1.00;;;;;;4863816;29;20217;-63
2023/01/10 05:38:32;;;;;;;18.00;7.03;;;5.90;1.00;;;;;;4849278;29;20222;-64
2023/01/10 05:41:00;;;;;;;18.70;5.70;;;5.90;1.00;;;;;;4848203;29;20198;-65
2023/01/10 05:43:27;;;;;;;20.20;6.83;;;5.90;1.00;;;;;;4840386;29;20201;-64
2023/01/10 05:45:54;;;;;;;14.50;6.47;;;5.90;1.00;;;;;;4864783;29;20202;-63
2023/01/10 05:48:21;;;;;;;17.67;5.20;;;5.90;1.00;;;;;;4862800;29;20225;-64
2023/01/10 05:50:49;;;;;;;13.97;4.60;;;5.90;1.00;;;;;;4848194;29;20218;-70
2023/01/10 05:53:18;;;;;;;18.23;5.43;;;5.90;1.00;;;;;;4853526;29;20959;-63
2023/01/10 05:55:59;;;;;;;13.17;4.80;;;5.90;1.00;;;;;;4864341;29;20670;-63
2023/01/10 05:58:27;;;;;;;21.67;5.50;;;5.90;1.00;;;;;;4862761;29;20608;-65
2023/01/10 06:00:55;;;;;;;16.10;4.70;;;6.00;1.00;;;;;;4849128;29;20210;-64
2023/01/10 06:03:23;;;;;;;13.90;4.47;;;5.90;1.00;;;;;;4850828;29;20252;-64
2023/01/10 06:05:51;;;;;;;22.77;5.53;;;5.90;1.00;;;;;;4862810;29;20304;-65
2023/01/10 06:08:18;;;;;;;10.93;4.50;;;6.00;1.00;;;;;;4865387;29;20205;-64
2023/01/10 06:10:45;;;;;;;19.20;4.90;;;5.90;1.00;;;;;;4848019;29;20262;-64
2023/01/10 06:13:12;;;;;;;14.73;4.97;;;5.90;1.00;;;;;;4863216;29;20202;-63
2023/01/10 06:15:39;;;;;;;17.57;4.87;;;6.00;1.00;;;;;;4839299;29;20300;-64
2023/01/10 06:18:07;;;;;;;17.40;5.03;;;6.00;1.00;;;;;;4847687;29;20221;-63
2023/01/10 06:20:36;;;;;;;16.83;5.17;;;6.00;1.00;;;;;;4863215;29;20619;-64
2023/01/10 06:23:03;;;;;;;19.40;5.40;;;6.00;1.00;;;;;;4863925;29;20728;-64
2023/01/10 06:25:34;;;;;;;17.70;5.23;;;6.10;1.00;;;;;;4862921;29;20569;-65
2023/01/10 06:28:02;;;;;;;19.60;4.80;;;6.10;1.00;;;;;;4844568;29;20321;-64
2023/01/10 06:30:29;;;;;;;11.37;5.30;;;6.10;1.00;;;;;;4862840;29;20210;-64
2023/01/10 06:33:03;;;;;;;27.07;7.67;;;6.10;1.00;;;;;;4853279;29;20222;-63
2023/01/10 06:35:30;;;;;;;15.23;4.40;;;6.10;1.00;;;;;;4862997;29;20194;-63
2023/01/10 06:37:58;;;;;;;11.50;4.63;;;6.20;1.00;;;;;;4853132;29;20952;-66
2023/01/10 06:40:25;;;;;;;18.07;4.53;;;6.10;1.00;;;;;;4861555;29;20556;-64
2023/01/10 06:42:53;;;;;;;11.07;4.53;;;6.10;1.00;;;;;;4849334;29;20209;-64
2023/01/10 06:45:20;;;;;;;17.40;4.93;;;6.20;1.00;;;;;;4864669;29;20273;-64
2023/01/10 06:47:47;;;;;;;15.17;4.90;;;6.20;1.00;;;;;;4839071;29;20317;-63
2023/01/10 06:50:14;;;;;;;12.77;4.07;;;6.20;1.00;;;;;;4848491;29;20213;-63
2023/01/10 06:52:41;;;;;;;17.67;5.30;;;6.20;1.00;;;;;;4862750;29;20474;-65
2023/01/10 06:55:08;;;;;;;17.80;4.40;;;6.20;1.00;;;;;;4853350;29;21007;-64
2023/01/10 06:57:37;;;;;;;12.23;4.00;;;6.20;1.00;;;;;;4865257;29;20602;-63
2023/01/10 07:00:07;;;;;;;18.53;4.37;;;6.20;1.00;;;;;;4864255;29;20228;-63
2023/01/10 07:02:34;;;;;;;16.97;4.37;;;6.20;1.00;;;;;;4848353;29;20202;-63
2023/01/10 07:05:01;;;;;;;16.93;4.93;;;6.20;1.00;;;;;;4864488;29;20289;-64
2023/01/10 07:07:28;;;;;;;16.87;4.20;;;6.20;1.00;;;;;;4864097;29;20729;-63
2023/01/10 07:09:55;;;;;;;17.50;4.93;;;6.20;1.00;;;;;;4846752;29;20766;-63
2023/01/10 07:12:22;;;;;;;17.93;4.63;;;6.20;1.00;;;;;;4862261;29;20284;-63
2023/01/10 07:14:49;;;;;;;14.00;4.43;;;6.10;1.00;;;;;;4867896;29;20187;-63
2023/01/10 07:17:16;;;;;;;17.10;3.77;;;6.20;1.00;;;;;;4869013;29;20703;-68
2023/01/10 07:19:43;;;;;;;13.80;3.90;;;6.10;1.00;;;;;;4865909;29;20810;-63
2023/01/10 07:22:11;;;;;;;19.30;4.77;;;6.10;1.00;;;;;;4867231;29;20230;-63
2023/01/10 07:24:37;;;;;;;22.43;4.37;;;6.20;1.00;;;;;;4866973;29;20685;-69
2023/01/10 07:27:04;;;;;;;12.73;3.90;;;6.20;1.00;;;;;;4866618;29;20397;-63
2023/01/10 07:29:31;;;;;;;15.50;4.57;;;6.20;1.00;;;;;;4841454;29;20824;-63
2023/01/10 07:31:58;;;;;;;17.90;4.93;;;6.20;1.00;;;;;;4863922;29;20200;-63
2023/01/10 07:34:25;;;;;;;16.73;4.57;;;6.30;1.00;;;;;;4867588;29;20722;-64
2023/01/10 07:36:52;;;;;;;25.63;5.10;;;6.20;1.00;;;;;;4850377;29;20251;-63
2023/01/10 07:39:19;;;;;;;24.07;5.30;;;6.20;1.00;;;;;;4842916;29;20602;-63
2023/01/10 07:41:48;;;;;;;21.03;5.00;;;6.10;1.00;;;;;;4866701;29;20198;-62
2023/01/10 07:44:15;;;;;;;22.53;5.20;;;6.20;1.00;;;;;;4864821;29;20673;-62
2023/01/10 07:46:42;;;;;;;21.93;4.80;;;6.20;1.00;;;;;;4851018;29;20930;-63
2023/01/10 07:49:09;;;;;;;21.27;5.03;;;6.10;1.00;;;;;;4866593;29;20292;-63
2023/01/10 07:51:36;;;;;;;20.73;5.07;;;6.10;1.00;;;;;;4854146;29;20675;-63
2023/01/10 07:54:03;;;;;;;16.10;5.47;;;6.20;1.00;;;;;;4868533;29;20256;-63
2023/01/10 07:56:30;;;;;;;26.17;6.23;;;6.20;1.00;;;;;;4863460;29;20208;-68
2023/01/10 07:59:00;;;;;;;25.33;5.53;;;6.20;1.00;;;;;;4882780;29;20263;-67
2023/01/10 08:01:28;;;;;;;21.40;5.73;;;6.30;1.00;;;;;;4862781;29;20202;-63
2023/01/10 08:03:57;;;;;;;22.77;5.90;;;6.30;1.00;;;;;;4866152;29;20244;-63
2023/01/10 08:06:24;;;;;;;17.77;5.93;;;6.30;1.00;;;;;;4865196;29;20231;-63
2023/01/10 08:08:51;;;;;;;19.37;5.57;;;6.30;1.00;;;;;;4851387;29;20735;-64
2023/01/10 08:11:18;;;;;;;23.77;5.40;;;6.30;1.00;;;;;;4867256;29;20202;-66
2023/01/10 08:13:45;;;;;;;21.37;5.67;;;6.30;1.00;;;;;;4856070;29;20222;-63
2023/01/10 08:16:14;;;;;;;18.80;5.93;;;6.40;1.00;;;;;;4863912;29;20568;-63
2023/01/10 08:18:42;;;;;;;28.07;6.43;;;6.40;1.00;;;;;;4866342;29;20233;-63
2023/01/10 08:21:09;;;;;;;21.33;5.87;;;6.40;1.00;;;;;;4867115;29;20210;-63
2023/01/10 08:23:36;;;;;;;20.20;5.90;;;6.40;1.00;;;;;;4856487;29;20249;-63
2023/01/10 08:26:04;;;;;;;22.50;5.50;;;6.50;1.00;;;;;;4864998;29;20209;-64
2023/01/10 08:28:34;;;;;;;21.77;6.47;;;6.40;1.00;;;;;;4865540;29;20217;-62
2023/01/10 08:31:06;;;;;;;21.57;5.67;;;6.40;1.00;;;;;;4849527;29;20194;-65
2023/01/10 08:33:35;;;;;;;18.53;5.27;;;6.50;1.00;;;;;;4867572;29;20206;-62
2023/01/10 08:36:02;;;;;;;24.87;6.17;;;6.50;1.00;;;;;;4866895;29;20198;-62
2023/01/10 08:38:29;;;;;;;19.87;5.90;;;6.60;1.00;;;;;;4867299;29;20405;-62
2023/01/10 08:40:59;;;;;;;26.73;6.23;;;6.60;1.00;;;;;;4850366;29;20199;-63
2023/01/10 08:43:26;;;;;;;17.57;6.37;;;6.60;1.00;;;;;;4865989;29;20230;-63
2023/01/10 08:45:53;;;;;;;22.93;6.37;;;6.60;1.00;;;;;;4864825;29;20907;-64
2023/01/10 08:48:20;;;;;;;23.20;6.70;;;6.60;1.00;;;;;;4866171;29;20212;-64
2023/01/10 08:50:47;;;;;;;23.27;6.53;;;6.70;1.00;;;;;;4865726;29;20200;-64
2023/01/10 08:53:14;;;;;;;26.20;6.80;;;6.70;1.00;;;;;;4854850;29;20679;-65
2023/01/10 08:55:41;;;;;;;18.10;6.83;;;6.70;1.00;;;;;;4866329;29;20206;-62
2023/01/10 08:58:09;;;;;;;27.30;7.43;;;6.80;1.00;;;;;;4866603;29;20285;-62
2023/01/10 09:00:36;;;;;;;23.77;6.67;;;6.90;1.00;;;;;;4865796;29;20625;-62
2023/01/10 09:03:06;;;;;;;25.43;6.50;;;7.00;1.00;;;;;;4868091;29;20281;-65
2023/01/10 09:05:33;;;;;;;21.67;6.20;;;6.90;1.00;;;;;;4856371;29;20238;-64
2023/01/10 09:08:01;;;;;;;28.67;6.37;;;6.90;1.00;;;;;;4865361;29;20713;-62
2023/01/10 09:10:29;;;;;;;26.93;6.60;;;6.90;1.00;;;;;;4840991;29;20214;-65
2023/01/10 09:13:00;;;;;;;25.00;5.90;;;7.00;1.00;;;;;;4850923;29;20194;-61
2023/01/10 09:15:31;;;;;;;24.23;6.20;;;7.00;1.00;;;;;;4848112;29;20206;-62
2023/01/10 09:18:01;;;;;;;23.97;5.97;;;7.00;1.00;;;;;;4867699;29;20201;-63
2023/01/10 09:20:29;;;;;;;26.27;6.23;;;7.10;1.00;;;;;;4864218;29;20278;-63
2023/01/10 09:22:57;;;;;;;28.30;6.10;;;7.20;1.00;;;;;;4860693;29;20206;-64
2023/01/10 09:25:24;;;;;;;29.10;6.37;;;7.20;1.00;;;;;;4834442;29;20722;-63
2023/01/10 09:27:58;;;;;;;20.80;6.37;;;7.20;1.00;;;;;;4867602;29;20220;-63
2023/01/10 09:30:26;;;;;;;33.27;5.83;;;7.20;1.00;;;;;;4864323;29;20681;-63
2023/01/10 09:32:55;;;;;;;19.50;6.27;;;7.10;1.00;;;;;;4850675;29;20200;-63
2023/01/10 09:35:24;;;;;;;23.83;6.23;;;7.10;1.00;;;;;;4863609;29;20209;-64
2023/01/10 09:37:55;;;;;;;20.43;6.30;;;7.10;1.00;;;;;;4878432;29;20258;-63
2023/01/10 09:40:51;;;;;;;20.50;6.53;;;7.00;1.00;;;;;;4868133;29;21153;-64
2023/01/10 09:43:36;;;;;;;30.60;6.40;;;7.10;1.00;;;;;;4864219;29;20198;-63
2023/01/10 09:46:38;;;;;;;21.77;6.07;;;7.10;1.00;;;;;;4860091;29;20210;-63
2023/01/10 09:49:23;;;;;;;24.43;6.73;;;7.10;1.00;;;;;;4865562;29;20209;-64
2023/01/10 09:51:55;;;;;;;25.97;7.40;;;7.20;1.00;;;;;;4854194;29;20197;-63
2023/01/10 09:54:37;;;;;;;29.20;7.47;;;7.20;1.00;;;;;;4847903;29;20845;-63
2023/01/10 09:57:04;;;;;;;31.00;8.00;;;7.20;1.00;;;;;;4865407;29;20514;-63
2023/01/10 09:59:40;;;;;;;21.80;6.70;;;7.30;1.00;;;;;;4832898;29;20294;-64
2023/01/10 10:02:29;;;;;;;21.97;7.50;;;7.50;1.00;;;;;;4863714;29;20236;-64
2023/01/10 10:05:14;;;;;;;24.83;6.57;;;7.40;1.00;;;;;;4864239;29;20434;-65
2023/01/10 10:07:41;;;;;;;31.60;7.23;;;7.40;1.00;;;;;;4865718;29;20723;-64
2023/01/10 10:10:17;;;;;;;27.03;7.00;;;7.60;1.00;;;;;;4845284;29;20273;-65
2023/01/10 10:13:13;;;;;;;34.53;9.23;;;7.80;1.00;;;;;;4853425;29;20308;-64
2023/01/10 10:16:11;;;;;;;28.00;7.10;;;8.00;1.00;;;;;;4834070;29;20201;-64
2023/01/10 10:19:16;;;;;;;32.87;10.47;;;8.20;1.00;;;;;;4866028;29;20666;-63
2023/01/10 10:22:07;;;;;;;32.30;9.60;;;8.20;1.00;;;;;;4863565;29;20288;-64
2023/01/10 10:24:40;;;;;;;19.37;6.77;;;8.60;1.00;;;;;;4847539;29;20624;-64
2023/01/10 10:27:35;;;;;;;17.20;5.53;;;8.40;1.00;;;;;;4863255;29;20210;-64
2023/01/10 10:30:16;;;;;;;28.47;6.73;;;8.60;1.00;;;;;;4864051;29;20651;-64
2023/01/10 10:33:20;;;;;;;25.33;6.47;;;8.30;1.00;;;;;;4864818;29;20246;-65
2023/01/10 10:36:03;;;;;;;20.00;6.03;;;8.10;1.00;;;;;;4864245;29;21350;-64
2023/01/10 10:38:38;;;;;;;25.13;6.67;;;8.00;1.00;;;;;;4862232;29;20566;-65
2023/01/10 10:41:27;;;;;;;24.60;6.07;;;8.00;1.00;;;;;;4863389;29;20206;-65
2023/01/10 10:43:59;;;;;;;32.77;5.03;;;8.00;1.00;;;;;;4865002;29;20217;-64
2023/01/10 10:46:26;;;;;;;21.67;5.27;;;8.00;1.00;;;;;;4852830;29;20644;-65
2023/01/10 10:49:21;;;;;;;21.97;6.43;;;8.10;1.00;;;;;;4864566;29;20273;-64
2023/01/10 10:51:52;;;;;;;27.07;6.03;;;8.10;1.00;;;;;;4862079;29;20736;-64
2023/01/10 10:54:19;;;;;;;29.33;6.90;;;8.00;1.00;;;;;;4864901;29;20745;-68
2023/01/10 10:56:47;;;;;;;26.53;7.30;;;8.10;1.00;;;;;;4865369;29;20201;-64
2023/01/10 10:59:17;;;;;;;22.70;7.67;;;8.30;1.00;;;;;;4864096;29;20679;-65
2023/01/10 11:01:48;;;;;;;22.20;6.77;;;8.60;1.00;;;;;;4853614;29;20205;-63
2023/01/10 11:04:19;;;;;;;25.10;5.57;;;8.50;1.00;;;;;;4844227;29;20242;-64
2023/01/10 11:06:48;;;;;;;27.27;5.50;;;9.10;1.00;;;;;;4859295;29;20290;-65
2023/01/10 11:11:58;;;;;;;25.50;6.53;;;13.10;1.00;;;;;;4844940;29;20190;-65
2023/01/10 11:14:48;;;;;;;21.90;5.30;;;14.40;1.00;;;;;;4844570;29;20279;-64
2023/01/10 11:17:24;;;;;;;26.67;6.23;;;13.10;1.00;;;;;;4829933;29;20631;-64
2023/01/10 11:19:57;;;;;;;19.93;5.70;;;12.60;1.00;;;;;;4860239;29;20194;-65
2023/01/10 11:22:26;;;;;;;28.67;6.43;;;11.50;1.00;;;;;;4843384;29;20207;-64
2023/01/10 11:24:59;;;;;;;22.73;6.10;;;10.90;1.00;;;;;;4859180;29;20705;-65
2023/01/10 11:27:29;;;;;;;23.07;5.73;;;10.30;1.00;;;;;;4847316;29;20689;-64
2023/01/10 11:30:01;;;;;;;19.17;6.30;;;10.10;1.00;;;;;;4844455;29;20275;-65
2023/01/10 11:32:47;;;;;;;23.13;5.70;;;10.30;1.00;;;;;;4859453;29;20369;-65
2023/01/10 11:35:21;;;;;;;15.23;5.17;;;10.30;1.00;;;;;;4845303;29;20198;-64
2023/01/10 11:38:18;;;;;;;26.33;5.60;;;10.70;1.00;;;;;;4831598;29;20205;-64
2023/01/10 11:41:00;;;;;;;20.07;5.40;;;10.90;1.00;;;;;;4860056;29;20198;-64
2023/01/10 11:43:32;;;;;;;22.87;5.27;;;10.80;1.00;;;;;;4845825;29;20243;-65
2023/01/10 11:46:14;;;;;;;18.97;6.33;;;10.00;1.00;;;;;;4844892;29;20290;-65
2023/01/10 11:49:02;;;;;;;21.73;5.53;;;10.00;1.00;;;;;;4858010;29;20215;-64
2023/01/10 11:51:36;;;;;;;23.37;5.60;;;9.70;1.00;;;;;;4840212;29;20551;-64
2023/01/10 11:54:09;;;;;;;16.30;4.60;;;9.90;1.00;;;;;;4844183;29;22813;-64
2023/01/10 11:56:42;;;;;;;20.47;4.80;;;9.50;1.00;;;;;;4842323;29;20210;-64
2023/01/10 11:59:14;;;;;;;17.83;5.67;;;9.40;1.00;;;;;;4844545;29;20206;-64
2023/01/10 12:01:42;;;;;;;22.97;5.50;;;9.30;1.00;;;;;;4861623;29;20199;-64
2023/01/10 12:04:19;;;;;;;26.53;6.10;;;9.50;1.00;;;;;;4850377;29;20245;-70
2023/01/10 12:06:53;;;;;;;18.63;5.13;;;9.60;1.00;;;;;;4866195;29;20540;-63
2023/01/10 12:09:34;;;;;;;19.37;5.30;;;9.40;1.00;;;;;;4882759;29;20278;-68
2023/01/10 12:12:04;;;;;;;16.20;4.63;;;9.30;1.00;;;;;;4864439;29;20210;-66
2023/01/10 12:14:31;;;;;;;25.10;5.50;;;9.30;1.00;;;;;;4867005;29;20298;-64
2023/01/10 12:17:01;;;;;;;16.83;4.73;;;9.20;1.00;;;;;;4867871;29;20255;-62
2023/01/10 12:19:29;;;;;;;26.37;6.40;;;9.10;1.00;;;;;;4866597;29;20224;-63
2023/01/10 12:22:03;;;;;;;20.37;4.77;;;9.10;1.00;;;;;;4883492;29;20215;-63
2023/01/10 12:24:34;;;;;;;23.33;6.07;;;9.00;1.00;;;;;;4866982;29;20682;-63
2023/01/10 12:27:04;;;;;;;26.17;5.87;;;8.80;1.00;;;;;;4865476;29;20207;-64
2023/01/10 12:29:35;;;;;;;19.20;4.80;;;8.70;1.00;;;;;;4857184;29;20222;-63
2023/01/10 12:32:05;;;;;;;23.37;5.20;;;8.70;1.00;;;;;;4866810;29;20541;-63
2023/01/10 12:34:51;;;;;;;23.43;4.83;;;8.60;1.00;;;;;;4852226;29;20194;-63
2023/01/10 12:37:37;;;;;;;25.97;6.00;;;8.60;1.00;;;;;;4866583;29;20197;-62
2023/01/10 12:40:31;;;;;;;20.03;5.27;;;8.70;1.00;;;;;;4846669;29;20618;-63
2023/01/10 12:46:14;;;;;;;25.07;7.43;;;8.60;1.00;;;;;;4865529;29;20202;-63
2023/01/10 12:49:07;;;;;;;18.67;5.93;;;8.70;1.00;;;;;;4838238;29;20336;-63
2023/01/10 12:51:35;;;;;;;34.57;11.77;;;8.50;1.00;;;;;;4848676;29;20221;-63
2023/01/10 12:54:11;;;;;;;26.63;8.00;;;8.50;1.00;;;;;;4863079;29;20214;-65
2023/01/10 12:56:39;;;;;;;30.93;9.27;;;8.50;1.00;;;;;;4867344;29;20205;-66
2023/01/10 12:59:19;;;;;;;18.13;5.97;;;8.50;1.00;;;;;;4867704;29;20607;-72
2023/01/10 13:02:06;;;;;;;22.33;6.57;;;8.50;1.00;;;;;;4866609;29;20190;-65
2023/01/10 13:04:35;;;;;;;19.93;4.47;;;8.60;1.00;;;;;;4843161;29;20628;-65
2023/01/10 13:07:03;;;;;;;19.23;5.90;;;8.50;1.00;;;;;;4866495;29;20202;-66
2023/01/10 13:09:31;;;;;;;16.83;4.80;;;8.50;1.00;;;;;;4856744;29;20329;-67
2023/01/10 13:12:16;;;;;;;15.33;3.73;;;8.70;1.00;;;;;;4850316;29;20293;-65
2023/01/10 13:15:17;;;;;;;21.37;4.00;;;8.70;1.00;;;;;;4847920;29;20208;-66
2023/01/10 13:18:18;;;;;;;21.13;4.87;;;8.60;1.00;;;;;;4867722;29;20205;-64
2023/01/10 13:20:45;;;;;;;23.07;4.13;;;8.50;1.00;;;;;;4866597;29;20665;-64
2023/01/10 13:23:33;;;;;;;19.70;4.57;;;8.40;1.00;;;;;;4866074;29;20234;-63
2023/01/10 13:26:07;;;;;;;19.40;4.00;;;8.40;1.00;;;;;;4857376;29;20734;-63
2023/01/10 13:28:50;;;;;;;22.83;4.47;;;8.40;1.00;;;;;;4866748;29;20197;-64
2023/01/10 13:31:32;;;;;;;16.73;3.97;;;8.40;1.00;;;;;;4866560;29;20206;-63
2023/01/10 13:34:08;;;;;;;17.80;4.57;;;8.40;1.00;;;;;;4851508;29;20700;-64
2023/01/10 13:36:53;;;;;;;15.43;4.20;;;8.40;1.00;;;;;;4851613;29;20280;-63
2023/01/10 13:39:32;;;;;;;18.43;4.37;;;8.30;1.00;;;;;;4867491;29;20622;-66